Time;durP1;ratioP1;P1;durP2;ratioP2;P2;SDS_P1;SDS_P2;PMS_P1;PMS_P2;Temp;Humidity;BMP_temperature;BMP_pressure;BME280_temperature;BME280_humidity;BME280_pressure;Samples;Min_cycle;Max_cycle;Signal;HPM_P1;HPM_P2
2024/01/29 00:01:19;;;;;;;0.10;0.10;;;;;;;11.20;67.66;101281.81;7358773;19;20010;-62
2024/01/29 00:03:46;;;;;;;0.20;0.20;;;;;;;11.15;67.61;101276.66;7361152;19;20015;-64
2024/01/29 00:06:11;;;;;;;0.10;0.10;;;;;;;11.19;67.66;101286.19;7356206;19;20058;-63
2024/01/29 00:08:37;;;;;;;0.10;0.10;;;;;;;11.04;67.56;101253.31;7367076;19;20486;-63
2024/01/29 00:11:02;;;;;;;0.10;0.10;;;;;;;11.18;67.71;101282.72;7355675;19;20006;-63
2024/01/29 00:13:28;;;;;;;0.10;0.10;;;;;;;10.97;67.91;101250.84;7362412;19;20010;-63
2024/01/29 00:15:53;;;;;;;0.10;0.10;;;;;;;11.08;67.87;101269.81;7353342;19;20841;-63
2024/01/29 00:18:19;;;;;;;0.10;0.10;;;;;;;11.02;67.90;101259.47;7362337;19;20017;-63
2024/01/29 00:20:44;;;;;;;0.10;0.10;;;;;;;10.99;67.61;101247.28;7363772;19;20019;-63
2024/01/29 00:23:09;;;;;;;0.10;0.10;;;;;;;11.16;67.95;101292.34;7361396;19;20439;-63
2024/01/29 00:25:35;;;;;;;0.10;0.10;;;;;;;11.14;67.81;101311.53;7351221;19;20741;-63
2024/01/29 00:28:00;;;;;;;0.10;0.10;;;;;;;11.16;67.99;101313.25;7352705;19;20010;-63
2024/01/29 00:30:26;;;;;;;0.10;0.10;;;;;;;11.16;68.05;101310.63;7354923;19;20014;-63
2024/01/29 00:32:51;;;;;;;0.10;0.10;;;;;;;11.08;67.80;101307.28;7363181;19;20014;-63
2024/01/29 00:35:16;;;;;;;0.10;0.10;;;;;;;11.14;67.88;101312.41;7360930;19;20014;-63
2024/01/29 00:37:42;;;;;;;0.10;0.10;;;;;;;11.01;67.92;101294.34;7356515;19;20011;-64
2024/01/29 00:40:08;;;;;;;0.10;0.10;;;;;;;11.12;68.14;101316.78;7359764;19;20014;-63
2024/01/29 00:42:33;;;;;;;0.10;0.10;;;;;;;11.04;68.00;101297.75;7368783;19;20116;-63
2024/01/29 00:44:59;;;;;;;0.10;0.10;;;;;;;11.05;67.72;101306.44;7362961;19;20006;-63
2024/01/29 00:47:24;;;;;;;0.10;0.10;;;;;;;11.08;68.19;101315.09;7360535;19;20794;-63
2024/01/29 00:49:50;;;;;;;0.10;0.10;;;;;;;10.94;67.85;101285.69;7370121;19;20011;-63
2024/01/29 00:52:15;;;;;;;0.10;0.10;;;;;;;11.02;67.87;101309.97;7356695;19;20011;-63
2024/01/29 00:54:40;;;;;;;0.10;0.10;;;;;;;11.07;68.26;101316.00;7359765;19;20011;-64
2024/01/29 00:57:06;;;;;;;0.10;0.10;;;;;;;11.03;68.23;101309.09;7360447;19;20010;-64
2024/01/29 00:59:31;;;;;;;0.10;0.10;;;;;;;11.05;67.90;101312.56;7359406;19;20006;-63
2024/01/29 01:01:57;;;;;;;0.10;0.10;;;;;;;11.05;67.98;101312.56;7364279;19;20009;-63
2024/01/29 01:04:22;;;;;;;0.10;0.10;;;;;;;10.94;68.10;101308.34;7354609;19;20062;-64
2024/01/29 01:06:47;;;;;;;0.10;0.10;;;;;;;10.93;68.31;101297.03;7365944;19;20006;-64
2024/01/29 01:09:14;;;;;;;0.10;0.10;;;;;;;11.00;68.14;101303.94;7355850;19;20011;-63
2024/01/29 01:11:41;;;;;;;0.10;0.10;;;;;;;10.97;68.08;101313.56;7360695;19;20465;-62
2024/01/29 01:14:06;;;;;;;0.10;0.10;;;;;;;10.87;68.09;101297.13;7365153;19;20026;-63
2024/01/29 01:16:31;;;;;;;0.10;0.10;;;;;;;11.01;68.66;101315.25;7366198;19;20006;-63
2024/01/29 01:18:57;;;;;;;0.10;0.10;;;;;;;11.00;68.55;101313.47;7363126;19;20015;-63
2024/01/29 01:21:22;;;;;;;0.10;0.10;;;;;;;10.80;68.53;101290.28;7368872;19;20021;-63
2024/01/29 01:23:48;;;;;;;0.10;0.10;;;;;;;10.80;68.50;101290.28;7369694;19;20014;-63
2024/01/29 01:26:13;;;;;;;0.10;0.10;;;;;;;10.78;68.46;101292.03;7376488;19;20010;-63
2024/01/29 01:28:38;;;;;;;0.10;0.10;;;;;;;10.91;68.74;101307.53;7361648;19;20019;-62
2024/01/29 01:31:04;;;;;;;0.10;0.10;;;;;;;10.94;68.37;101311.81;7371639;19;20011;-63
2024/01/29 01:33:29;;;;;;;0.10;0.10;;;;;;;10.93;68.60;101310.09;7369220;19;20043;-62
2024/01/29 01:35:55;;;;;;;0.10;0.10;;;;;;;10.75;68.51;101281.66;7368350;19;20577;-63
2024/01/29 01:38:20;;;;;;;0.10;0.10;;;;;;;10.89;68.79;101311.88;7368404;19;20077;-63
2024/01/29 01:40:45;;;;;;;0.10;0.10;;;;;;;10.79;68.76;101309.44;7369982;19;20013;-62
2024/01/29 01:43:19;;;;;;;0.10;0.10;;;;;;;10.90;68.30;101313.66;7367767;19;20047;-62
2024/01/29 01:45:44;;;;;;;0.13;0.13;;;;;;;10.75;68.68;101292.09;7369772;19;20377;-63
2024/01/29 01:48:11;;;;;;;0.10;0.10;;;;;;;10.87;68.74;101318.91;7363293;19;20105;-63
2024/01/29 01:50:37;;;;;;;0.10;0.10;;;;;;;10.78;69.06;101292.03;7366620;19;20047;-64
2024/01/29 01:53:03;;;;;;;0.08;0.08;;;;;;;10.78;68.77;101299.88;7368827;19;20014;-63
2024/01/29 01:55:29;;;;;;;0.10;0.10;;;;;;;10.80;69.16;101321.63;7369825;19;20101;-63
2024/01/29 01:57:57;;;;;;;0.10;0.10;;;;;;;10.84;69.06;101329.38;7367287;19;20014;-62
2024/01/29 02:00:23;;;;;;;0.10;0.10;;;;;;;10.85;69.14;101335.50;7370078;19;20014;-63
2024/01/29 02:02:48;;;;;;;0.10;0.10;;;;;;;10.83;68.83;101355.53;7365300;19;20014;-62
2024/01/29 02:05:13;;;;;;;0.10;0.10;;;;;;;10.65;68.94;101334.00;7366269;19;20014;-63
2024/01/29 02:07:39;;;;;;;0.10;0.10;;;;;;;10.80;68.79;101363.44;7366244;19;20010;-64
2024/01/29 02:10:05;;;;;;;0.10;0.10;;;;;;;10.69;69.13;101349.63;7374057;19;21146;-63
2024/01/29 02:12:31;;;;;;;0.10;0.10;;;;;;;10.78;69.23;101367.78;7369254;19;20018;-63
2024/01/29 02:14:56;;;;;;;0.13;0.13;;;;;;;10.68;68.89;101353.97;7368689;19;20476;-63
2024/01/29 02:17:21;;;;;;;0.10;0.10;;;;;;;10.63;68.91;101364.50;7364961;19;20015;-64
2024/01/29 02:19:47;;;;;;;0.10;0.10;;;;;;;10.74;69.08;101387.84;7364499;19;20019;-63
2024/01/29 02:22:12;;;;;;;0.03;0.03;;;;;;;10.62;69.28;101365.38;7368380;19;20485;-63
2024/01/29 02:24:38;;;;;;;0.10;0.10;;;;;;;10.74;69.36;101379.16;7362107;19;20010;-63
2024/01/29 02:27:03;;;;;;;0.10;0.10;;;;;;;10.71;69.31;101376.59;7368684;19;20010;-63
2024/01/29 02:29:29;;;;;;;0.10;0.10;;;;;;;10.61;69.28;101366.25;7368074;19;20022;-63
2024/01/29 02:31:54;;;;;;;0.10;0.10;;;;;;;10.68;69.37;101384.47;7366384;19;20006;-63
2024/01/29 02:34:20;;;;;;;0.10;0.10;;;;;;;10.23;69.42;101313.59;7366575;19;20035;-63
2024/01/29 02:36:45;;;;;;;0.10;0.10;;;;;;;10.51;69.31;101369.88;7360707;19;20015;-63
2024/01/29 02:39:12;;;;;;;0.10;0.10;;;;;;;10.65;69.13;101395.84;7368788;19;20014;-63
2024/01/29 02:41:37;;;;;;;0.10;0.10;;;;;;;10.51;69.56;101371.63;7367230;19;20456;-63
2024/01/29 02:44:03;;;;;;;0.10;0.10;;;;;;;10.62;69.50;101401.94;7360748;19;20020;-63
2024/01/29 02:46:28;;;;;;;0.10;0.10;;;;;;;10.47;69.48;101376.00;7367834;19;20348;-63
2024/01/29 02:48:54;;;;;;;0.10;0.10;;;;;;;10.61;69.28;101399.34;7366873;19;20018;-63
2024/01/29 02:51:20;;;;;;;0.10;0.10;;;;;;;10.56;69.36;101391.56;7365397;19;20014;-63
2024/01/29 02:53:45;;;;;;;0.10;0.10;;;;;;;10.47;69.66;101375.16;7367450;19;20039;-63
2024/01/29 02:56:10;;;;;;;0.10;0.10;;;;;;;10.59;69.30;101394.16;7368580;19;20476;-63
2024/01/29 02:58:36;;;;;;;0.10;0.10;;;;;;;10.49;69.48;101396.88;7368091;19;20014;-64
2024/01/29 03:01:01;;;;;;;0.10;0.10;;;;;;;10.53;69.59;101407.25;7364465;19;20014;-63
2024/01/29 03:03:27;;;;;;;0.10;0.10;;;;;;;10.56;69.77;101419.44;7366467;19;20025;-63
2024/01/29 03:05:52;;;;;;;0.10;0.10;;;;;;;10.43;69.58;101399.56;7365300;19;20039;-63
2024/01/29 03:08:17;;;;;;;0.20;0.20;;;;;;;10.43;69.60;101405.63;7367092;19;20014;-63
2024/01/29 03:10:43;;;;;;;0.10;0.10;;;;;;;10.48;69.58;101410.81;7363073;19;20011;-63
2024/01/29 03:13:08;;;;;;;0.10;0.10;;;;;;;10.35;69.62;101386.59;7374173;19;20026;-63
2024/01/29 03:15:34;;;;;;;0.10;0.10;;;;;;;10.50;69.41;101415.16;7365422;19;20086;-63
2024/01/29 03:17:59;;;;;;;0.10;0.10;;;;;;;10.50;69.41;101411.69;7365860;19;20470;-63
2024/01/29 03:20:24;;;;;;;0.15;0.15;;;;;;;10.49;69.52;101413.44;7365663;19;20014;-63
2024/01/29 03:22:50;;;;;;;0.10;0.10;;;;;;;10.43;69.52;101405.63;7367853;19;20015;-63
2024/01/29 03:25:15;;;;;;;0.10;0.10;;;;;;;10.42;69.92;101408.28;7364561;19;20528;-63
2024/01/29 03:27:41;;;;;;;0.10;0.10;;;;;;;10.31;69.59;101385.75;7361136;19;20486;-64
2024/01/29 03:30:06;;;;;;;0.10;0.10;;;;;;;10.42;69.37;101403.91;7363432;19;20033;-63
2024/01/29 03:32:32;;;;;;;0.10;0.10;;;;;;;10.42;69.72;101403.06;7367539;19;20027;-62
2024/01/29 03:34:57;;;;;;;0.10;0.10;;;;;;;10.13;69.26;101358.06;7366046;19;20037;-62
2024/01/29 03:37:23;;;;;;;0.10;0.10;;;;;;;10.37;69.00;101395.25;7361419;19;20024;-62
2024/01/29 03:39:48;;;;;;;0.10;0.10;;;;;;;10.35;69.63;101397.91;7364969;19;20003;-63
2024/01/29 03:42:13;;;;;;;0.10;0.10;;;;;;;10.30;69.81;101391.88;7366649;19;20759;-63
2024/01/29 03:44:39;;;;;;;0.10;0.10;;;;;;;10.31;69.42;101390.97;7360790;19;20017;-63
2024/01/29 03:47:04;;;;;;;0.10;0.10;;;;;;;10.29;69.63;101391.84;7362449;19;20014;-64
2024/01/29 03:49:30;;;;;;;0.10;0.10;;;;;;;10.22;69.79;101380.59;7365389;19;20014;-63
2024/01/29 03:51:55;;;;;;;0.13;0.13;;;;;;;10.09;69.73;101353.78;7358412;19;20845;-63
2024/01/29 03:54:21;;;;;;;0.10;0.10;;;;;;;10.21;69.59;101373.66;7362574;19;20006;-63
2024/01/29 03:56:46;;;;;;;0.10;0.10;;;;;;;10.12;69.70;101365.91;7361257;19;20022;-63
2024/01/29 03:59:12;;;;;;;0.10;0.10;;;;;;;10.08;69.56;101357.25;7362215;19;20037;-64
2024/01/29 04:01:38;;;;;;;0.10;0.10;;;;;;;10.25;69.77;101391.03;7364821;19;20025;-64
2024/01/29 04:04:04;;;;;;;0.10;0.10;;;;;;;10.11;69.72;101372.00;7365732;19;20516;-63
2024/01/29 04:06:30;;;;;;;0.10;0.10;;;;;;;10.09;69.29;101369.44;7363426;19;20779;-63
2024/01/29 04:08:55;;;;;;;0.10;0.10;;;;;;;10.22;69.19;101384.94;7357733;19;20022;-63
2024/01/29 04:11:21;;;;;;;0.10;0.10;;;;;;;10.02;69.26;101362.53;7365114;19;20014;-63
2024/01/29 04:13:46;;;;;;;0.10;0.10;;;;;;;10.17;69.29;101389.34;7358179;19;20015;-63
2024/01/29 04:16:11;;;;;;;0.08;0.08;;;;;;;10.02;69.83;101372.97;7356052;19;20007;-63
2024/01/29 04:18:38;;;;;;;0.20;0.20;;;;;;;10.12;69.36;101400.69;7336276;19;20021;-62
2024/01/29 04:21:06;;;;;;;0.10;0.10;;;;;;;9.67;69.39;101336.75;7366943;19;20010;-63
2024/01/29 04:23:32;;;;;;;0.00;0.00;;;;;;;9.85;69.51;101380.09;7364783;19;20018;-63
2024/01/29 04:25:57;;;;;;;0.10;0.10;;;;;;;10.07;69.77;101412.91;7360857;19;20014;-63
2024/01/29 04:28:23;;;;;;;0.10;0.10;;;;;;;9.96;69.30;101393.03;7360094;19;20532;-63
2024/01/29 04:30:48;;;;;;;0.10;0.10;;;;;;;9.46;69.71;101309.13;7364934;19;20010;-62
2024/01/29 04:33:14;;;;;;;0.10;0.10;;;;;;;9.79;69.82;101377.53;7358535;19;20007;-63
2024/01/29 04:35:39;;;;;;;0.10;0.10;;;;;;;9.82;69.81;101388.78;7361535;19;20009;-63
2024/01/29 04:38:05;;;;;;;0.10;0.10;;;;;;;9.95;69.90;101418.25;7361574;19;20015;-63
2024/01/29 04:40:30;;;;;;;0.10;0.10;;;;;;;9.78;70.11;101391.44;7358270;19;20109;-62
2024/01/29 04:42:56;;;;;;;0.10;0.10;;;;;;;9.87;69.57;101409.63;7360338;19;20025;-63
2024/01/29 04:45:21;;;;;;;0.10;0.10;;;;;;;9.88;69.45;101416.56;7370583;19;20079;-62
2024/01/29 04:47:46;;;;;;;0.10;0.10;;;;;;;9.76;69.92;101406.25;7360107;19;20366;-63
2024/01/29 04:50:12;;;;;;;0.10;0.10;;;;;;;9.66;69.66;101394.16;7373843;19;20017;-63
2024/01/29 04:52:37;;;;;;;0.10;0.10;;;;;;;9.78;69.33;101420.13;7376837;19;20014;-63
2024/01/29 04:55:03;;;;;;;0.10;0.10;;;;;;;9.76;69.54;101429.72;7374119;19;20010;-63
2024/01/29 04:57:28;;;;;;;0.10;0.10;;;;;;;9.72;69.52;101420.19;7338924;19;20371;-63
2024/01/29 04:59:55;;;;;;;0.10;0.10;;;;;;;9.72;69.38;101430.63;7369989;19;20007;-62
2024/01/29 05:02:21;;;;;;;0.10;0.10;;;;;;;9.55;69.13;101413.34;7373967;19;20458;-63
2024/01/29 05:04:46;;;;;;;0.10;0.10;;;;;;;9.51;69.66;101406.44;7370590;19;20006;-62
2024/01/29 05:07:12;;;;;;;0.10;0.10;;;;;;;9.59;69.46;101425.50;7368484;19;20006;-62
2024/01/29 05:09:37;;;;;;;0.10;0.10;;;;;;;9.56;69.52;101429.88;7368432;19;20033;-63
2024/01/29 05:12:05;;;;;;;0.13;0.13;;;;;;;9.53;69.29;101435.97;7370268;19;20006;-63
2024/01/29 05:14:30;;;;;;;0.10;0.10;;;;;;;9.37;69.26;101418.69;7368518;19;20014;-62
2024/01/29 05:16:56;;;;;;;0.20;0.20;;;;;;;9.53;69.42;101440.31;7367424;19;20007;-63
2024/01/29 05:19:21;;;;;;;0.10;0.10;;;;;;;9.38;69.18;101433.47;7375092;19;19999;-63
2024/01/29 05:21:48;;;;;;;0.03;0.03;;;;;;;9.48;69.08;101449.88;7362456;19;20854;-63
2024/01/29 05:24:13;;;;;;;0.10;0.10;;;;;;;9.42;69.20;101458.63;7365239;19;20014;-63
2024/01/29 05:26:39;;;;;;;0.10;0.10;;;;;;;9.33;68.79;101453.47;7365930;19;20555;-63
2024/01/29 05:29:04;;;;;;;0.10;0.10;;;;;;;9.34;68.45;101463.03;7366952;19;20647;-63
2024/01/29 05:31:30;;;;;;;0.08;0.08;;;;;;;9.34;68.18;101471.72;7365773;19;20005;-63
2024/01/29 05:33:55;;;;;;;0.10;0.10;;;;;;;9.26;68.06;101468.25;7369026;19;20015;-63
2024/01/29 05:36:20;;;;;;;0.10;0.10;;;;;;;9.28;68.35;101481.31;7357167;19;20006;-62
2024/01/29 05:38:46;;;;;;;0.10;0.10;;;;;;;9.19;68.38;101473.53;7370371;19;20012;-63
2024/01/29 05:41:11;;;;;;;0.10;0.10;;;;;;;9.15;68.90;101479.63;7362259;19;20002;-64
2024/01/29 05:43:37;;;;;;;0.10;0.10;;;;;;;9.11;68.66;101483.97;7367657;19;20485;-63
2024/01/29 05:46:02;;;;;;;0.10;0.10;;;;;;;9.15;68.57;101490.03;7353894;19;20026;-63
2024/01/29 05:48:27;;;;;;;0.10;0.10;;;;;;;8.99;68.67;101471.88;7369906;19;20011;-62
2024/01/29 05:50:53;;;;;;;0.03;0.03;;;;;;;9.01;68.83;101467.50;7369710;19;20027;-63
2024/01/29 05:53:20;;;;;;;0.10;0.10;;;;;;;8.98;68.59;101471.88;7365198;19;20014;-64
2024/01/29 05:55:46;;;;;;;0.10;0.10;;;;;;;9.09;69.06;101494.41;7372733;19;20010;-63
2024/01/29 05:58:11;;;;;;;0.10;0.10;;;;;;;9.01;68.98;101483.13;7360978;19;20539;-63
2024/01/29 06:00:37;;;;;;;0.00;0.00;;;;;;;8.77;69.40;101452.84;7368352;19;20840;-63
2024/01/29 06:03:02;;;;;;;0.00;0.00;;;;;;;8.94;69.04;101475.38;7368223;19;20002;-64
2024/01/29 06:05:28;;;;;;;0.10;0.10;;;;;;;8.98;69.25;101472.75;7363883;19;20017;-63
2024/01/29 06:07:55;;;;;;;0.10;0.10;;;;;;;9.01;69.11;101488.34;7363721;19;20002;-63
2024/01/29 06:10:21;;;;;;;0.00;0.00;;;;;;;9.02;69.35;101497.03;7367968;19;20034;-63
2024/01/29 06:12:47;;;;;;;0.10;0.10;;;;;;;9.01;69.53;101488.34;7364107;19;20003;-63
2024/01/29 06:15:13;;;;;;;0.00;0.00;;;;;;;8.94;69.54;101481.44;7367250;19;20010;-63
2024/01/29 06:17:39;;;;;;;0.10;0.10;;;;;;;8.80;69.52;101467.59;7368356;19;20026;-63
2024/01/29 06:20:06;;;;;;;0.10;0.10;;;;;;;8.81;69.30;101475.38;7366786;19;20002;-63
2024/01/29 06:22:31;;;;;;;0.10;0.10;;;;;;;8.75;69.54;101462.38;7357999;19;20022;-63
2024/01/29 06:24:57;;;;;;;0.10;0.10;;;;;;;8.77;69.43;101460.66;7367356;19;20056;-63
2024/01/29 06:27:22;;;;;;;0.10;0.10;;;;;;;8.79;68.99;101471.06;7364014;19;20021;-63
2024/01/29 06:29:48;;;;;;;0.10;0.10;;;;;;;8.76;69.03;101465.84;7366364;19;20010;-63
2024/01/29 06:32:13;;;;;;;0.10;0.10;;;;;;;8.81;68.94;101479.72;7365292;19;20642;-62
2024/01/29 06:34:38;;;;;;;0.10;0.10;;;;;;;8.76;69.49;101478.88;7369413;19;20012;-63
2024/01/29 06:37:04;;;;;;;0.10;0.10;;;;;;;8.58;69.24;101451.16;7364890;19;20014;-64
2024/01/29 06:39:30;;;;;;;0.10;0.10;;;;;;;8.57;68.96;101460.72;7370230;19;20013;-62
2024/01/29 06:41:55;;;;;;;0.10;0.10;;;;;;;8.69;68.70;101491.06;7374883;19;20379;-63
2024/01/29 06:44:20;;;;;;;0.10;0.10;;;;;;;8.55;68.77;101488.47;7366806;19;20084;-64
2024/01/29 06:46:46;;;;;;;0.10;0.10;;;;;;;8.64;68.96;101505.81;7367922;19;20014;-63
2024/01/29 06:49:25;;;;;;;0.10;0.10;;;;;;;8.63;68.89;101501.50;7364178;19;20014;-63
2024/01/29 06:51:50;;;;;;;0.10;0.10;;;;;;;8.53;69.46;101494.56;7368106;19;20019;-63
2024/01/29 06:54:15;;;;;;;0.10;0.10;;;;;;;8.54;69.04;101507.56;7366332;19;19995;-63
2024/01/29 06:56:41;;;;;;;0.00;0.00;;;;;;;8.45;68.73;101499.78;7365226;19;20520;-63
2024/01/29 06:59:06;;;;;;;0.10;0.10;;;;;;;8.44;69.26;101498.03;7369836;19;20007;-63
2024/01/29 07:01:34;;;;;;;0.10;0.10;;;;;;;8.28;69.15;101470.28;7373362;19;20023;-63
2024/01/29 07:03:59;;;;;;;0.10;0.10;;;;;;;8.28;69.19;101473.75;7369321;19;20772;-63
2024/01/29 07:06:25;;;;;;;0.00;0.00;;;;;;;8.27;69.84;101482.41;7366570;19;20018;-63
2024/01/29 07:08:50;;;;;;;0.10;0.10;;;;;;;8.14;69.28;101464.22;7364653;19;20024;-63
2024/01/29 07:11:15;;;;;;;0.10;0.10;;;;;;;8.41;69.79;101518.84;7363340;19;20010;-62
2024/01/29 07:13:41;;;;;;;0.00;0.00;;;;;;;8.17;69.50;101477.22;7365089;19;21114;-64
2024/01/29 07:16:06;;;;;;;0.10;0.10;;;;;;;8.27;69.95;101504.97;7365295;19;20085;-64
2024/01/29 07:18:32;;;;;;;0.00;0.00;;;;;;;8.39;69.99;101520.59;7366964;19;20006;-62
2024/01/29 07:20:58;;;;;;;0.10;0.10;;;;;;;8.28;70.06;101504.09;7360952;19;20014;-63
2024/01/29 07:23:23;;;;;;;0.10;0.10;;;;;;;8.29;69.94;101496.28;7364607;19;20003;-63
2024/01/29 07:25:48;;;;;;;0.10;0.10;;;;;;;8.32;70.00;101511.03;7363436;19;20043;-63
2024/01/29 07:28:14;;;;;;;0.10;0.10;;;;;;;8.27;69.82;101498.03;7364105;19;20895;-63
2024/01/29 07:30:39;;;;;;;0.10;0.10;;;;;;;8.23;69.80;101485.03;7361239;19;20525;-63
2024/01/29 07:33:05;;;;;;;0.10;0.10;;;;;;;8.40;69.50;101517.13;7366048;19;20014;-62
2024/01/29 07:35:30;;;;;;;0.10;0.10;;;;;;;8.39;69.43;101518.00;7362537;19;20462;-64
2024/01/29 07:37:56;;;;;;;0.10;0.10;;;;;;;8.33;69.70;101505.81;7364273;19;20014;-63
2024/01/29 07:40:21;;;;;;;0.00;0.00;;;;;;;8.31;70.02;101504.06;7358917;19;20447;-63
2024/01/29 07:42:47;;;;;;;0.10;0.10;;;;;;;8.21;69.82;101489.34;7362014;19;20017;-64
2024/01/29 07:45:13;;;;;;;0.00;0.00;;;;;;;8.36;70.10;101518.00;7363123;19;20776;-63
2024/01/29 07:47:39;;;;;;;0.00;0.00;;;;;;;8.28;70.06;101498.91;7356979;19;20362;-63
2024/01/29 07:50:05;;;;;;;0.10;0.10;;;;;;;8.35;70.07;101511.03;7360711;19;20018;-63
2024/01/29 07:52:30;;;;;;;0.10;0.10;;;;;;;8.37;69.78;101514.53;7364901;19;20010;-63
2024/01/29 07:54:56;;;;;;;0.10;0.10;;;;;;;8.29;69.90;101506.69;7367004;19;20361;-64
2024/01/29 07:57:21;;;;;;;0.10;0.10;;;;;;;8.35;69.97;101513.63;7355157;19;20023;-63
2024/01/29 07:59:46;;;;;;;0.10;0.10;;;;;;;8.33;69.83;101516.25;7369888;19;20015;-63
2024/01/29 08:02:12;;;;;;;0.10;0.10;;;;;;;8.36;70.10;101525.78;7357764;19;20010;-62
2024/01/29 08:04:38;;;;;;;0.10;0.10;;;;;;;8.32;69.92;101522.31;7369034;19;20010;-63
2024/01/29 08:07:04;;;;;;;0.10;0.10;;;;;;;8.29;69.97;101521.44;7358723;19;20010;-63
2024/01/29 08:09:29;;;;;;;0.10;0.10;;;;;;;8.32;70.25;101531.88;7356118;19;20121;-63
2024/01/29 08:11:55;;;;;;;0.10;0.10;;;;;;;8.34;70.30;101540.53;7362851;19;20039;-63
2024/01/29 08:14:21;;;;;;;0.00;0.00;;;;;;;8.31;70.17;101525.78;7359052;19;20017;-63
2024/01/29 08:16:46;;;;;;;0.00;0.00;;;;;;;8.32;70.59;101537.06;7359732;19;20022;-63
2024/01/29 08:19:12;;;;;;;0.10;0.10;;;;;;;8.31;70.51;101530.09;7360148;19;20569;-63
2024/01/29 08:21:37;;;;;;;0.10;0.10;;;;;;;8.33;70.24;101534.47;7366478;19;20024;-63
2024/01/29 08:24:04;;;;;;;0.10;0.10;;;;;;;8.19;70.31;101511.91;7360730;19;20002;-63
2024/01/29 08:26:29;;;;;;;0.10;0.10;;;;;;;8.32;70.59;101531.88;7363752;19;20529;-63
2024/01/29 08:28:55;;;;;;;0.10;0.10;;;;;;;8.27;70.27;101528.41;7360269;19;20010;-62
2024/01/29 08:31:20;;;;;;;0.10;0.10;;;;;;;8.28;70.12;101535.31;7356385;19;20524;-64
2024/01/29 08:33:46;;;;;;;0.00;0.00;;;;;;;8.34;70.05;101545.72;7359455;19;20118;-62
2024/01/29 08:36:12;;;;;;;0.10;0.10;;;;;;;8.29;70.40;101550.94;7359202;19;20801;-63
2024/01/29 08:38:37;;;;;;;0.10;0.10;;;;;;;8.18;70.29;101523.19;7362602;19;20019;-63
2024/01/29 08:41:03;;;;;;;0.10;0.10;;;;;;;8.34;70.27;101561.34;7331354;19;20011;-64
2024/01/29 08:43:28;;;;;;;0.10;0.10;;;;;;;8.32;70.21;101552.69;7359065;19;20006;-63
2024/01/29 08:45:54;;;;;;;0.10;0.10;;;;;;;8.27;70.30;101544.00;7357872;19;20006;-63
2024/01/29 08:48:19;;;;;;;0.10;0.10;;;;;;;8.31;70.54;101545.72;7363635;19;20014;-63
2024/01/29 08:50:45;;;;;;;0.10;0.10;;;;;;;8.31;70.35;101553.53;7359437;19;20070;-63
2024/01/29 08:53:10;;;;;;;0.10;0.10;;;;;;;8.37;70.37;101558.78;7364236;19;20007;-64
2024/01/29 08:55:36;;;;;;;0.10;0.10;;;;;;;8.23;70.71;101537.06;7360884;19;20036;-63
2024/01/29 08:58:01;;;;;;;0.10;0.10;;;;;;;8.37;70.72;101550.97;7358655;19;20006;-63
2024/01/29 09:00:27;;;;;;;0.00;0.00;;;;;;;8.39;70.29;101554.44;7358292;19;20010;-63
2024/01/29 09:02:53;;;;;;;0.10;0.10;;;;;;;8.09;70.41;101489.34;7363516;19;21127;-63
2024/01/29 09:05:18;;;;;;;0.10;0.10;;;;;;;8.41;70.49;101550.09;7365194;19;20022;-63
2024/01/29 09:07:44;;;;;;;0.10;0.10;;;;;;;8.39;70.56;101546.63;7360809;19;20024;-63
2024/01/29 09:10:09;;;;;;;0.10;0.10;;;;;;;8.36;70.42;101533.59;7358721;19;20033;-63
2024/01/29 09:12:35;;;;;;;0.00;0.00;;;;;;;8.34;70.50;101537.91;7362020;19;20418;-63
2024/01/29 09:15:04;;;;;;;0.10;0.10;;;;;;;8.44;70.45;101550.09;7360369;19;20022;-63
2024/01/29 09:17:29;;;;;;;0.10;0.10;;;;;;;8.37;70.41;101535.38;7363149;19;20013;-63
2024/01/29 09:19:55;;;;;;;0.10;0.10;;;;;;;8.26;70.20;101511.03;7353329;19;20018;-62
2024/01/29 09:22:20;;;;;;;0.10;0.10;;;;;;;8.36;70.38;101532.72;7357798;19;20128;-63
2024/01/29 09:24:46;;;;;;;0.10;0.10;;;;;;;8.46;70.35;101540.53;7362283;19;20041;-63
2024/01/29 09:27:12;;;;;;;0.10;0.10;;;;;;;8.33;70.49;101517.97;7356490;19;20018;-62
2024/01/29 09:29:38;;;;;;;0.15;0.15;;;;;;;8.33;70.41;101523.19;7356700;19;20753;-63
2024/01/29 09:32:04;;;;;;;0.10;0.10;;;;;;;8.31;70.31;101519.69;7360998;19;20014;-63
2024/01/29 09:34:30;;;;;;;0.10;0.10;;;;;;;8.37;70.22;101524.94;7366532;19;20014;-63
2024/01/29 09:36:55;;;;;;;0.00;0.00;;;;;;;8.45;70.03;101528.41;7377422;19;20026;-63
2024/01/29 09:39:23;;;;;;;0.10;0.10;;;;;;;8.48;70.09;101531.00;7377924;19;20018;-63
2024/01/29 09:41:49;;;;;;;;;;;;;;;8.50;69.96;101537.06;7371529;19;20011;-63
2024/01/29 09:44:15;;;;;;;0.10;0.10;;;;;;;8.45;70.10;101531.00;7368300;19;19932;-63
2024/01/29 09:46:40;;;;;;;0.08;0.08;;;;;;;8.43;70.02;101540.56;7368119;19;20010;-63
2024/01/29 09:49:07;;;;;;;0.10;0.10;;;;;;;8.39;70.28;101531.00;7365332;19;20016;-64
2024/01/29 09:51:33;;;;;;;0.10;0.10;;;;;;;8.28;70.36;101514.50;7367454;19;20014;-63
2024/01/29 09:54:03;;;;;;;0.10;0.10;;;;;;;8.38;70.40;101531.03;7369117;19;20078;-63
2024/01/29 09:56:29;;;;;;;0.10;0.10;;;;;;;8.27;70.35;101518.00;7367417;19;20010;-63
2024/01/29 09:58:55;;;;;;;0.10;0.10;;;;;;;8.41;70.61;101533.59;7371830;19;20460;-63
2024/01/29 10:01:22;;;;;;;0.08;0.08;;;;;;;8.36;70.32;101527.50;7366665;19;20014;-62
2024/01/29 10:03:48;;;;;;;0.10;0.10;;;;;;;8.38;70.35;101537.09;7368212;19;20482;-62
2024/01/29 10:06:14;;;;;;;0.10;0.10;;;;;;;8.42;70.11;101544.03;7365808;19;20011;-62
2024/01/29 10:08:40;;;;;;;0.05;0.05;;;;;;;8.38;70.40;101526.69;7369916;19;20015;-62
2024/01/29 10:11:07;;;;;;;0.00;0.00;;;;;;;7.98;70.36;101452.94;7361478;19;20591;-62
2024/01/29 10:13:33;;;;;;;0.10;0.10;;;;;;;8.41;70.33;101524.06;7370083;19;20429;-63
2024/01/29 10:15:58;;;;;;;0.08;0.08;;;;;;;8.42;70.37;101520.63;7337255;19;20014;-63
2024/01/29 10:18:24;;;;;;;0.00;0.00;;;;;;;8.26;70.08;101487.59;7367497;19;20006;-63
2024/01/29 10:21:03;;;;;;;0.10;0.10;;;;;;;8.40;70.28;101514.53;7360641;19;20501;-62
2024/01/29 10:23:28;;;;;;;0.10;0.10;;;;;;;8.41;70.42;101526.66;7369493;19;20330;-62
2024/01/29 10:25:55;;;;;;;0.10;0.10;;;;;;;8.32;70.37;101511.03;7363337;19;20010;-63
2024/01/29 10:28:23;;;;;;;0.10;0.10;;;;;;;8.45;70.42;101515.38;7368389;19;20034;-63
2024/01/29 10:30:49;;;;;;;0.10;0.10;;;;;;;8.47;70.45;101505.84;7366661;19;20015;-63
2024/01/29 10:33:15;;;;;;;0.10;0.10;;;;;;;8.44;70.45;101499.78;7367325;19;20014;-62
2024/01/29 10:35:40;;;;;;;0.10;0.10;;;;;;;8.49;70.24;101524.94;7364518;19;20512;-62
2024/01/29 10:38:06;;;;;;;0.10;0.10;;;;;;;8.51;70.53;101538.81;7363405;19;20111;-63
2024/01/29 10:40:33;;;;;;;0.10;0.10;;;;;;;8.51;70.59;101538.81;7368942;19;20023;-62
2024/01/29 10:42:59;;;;;;;0.10;0.10;;;;;;;8.54;70.41;101540.56;7348431;19;20372;-63
2024/01/29 10:45:25;;;;;;;0.00;0.00;;;;;;;8.52;70.50;101543.16;7366875;19;20010;-63
2024/01/29 10:48:15;;;;;;;0.08;0.08;;;;;;;8.61;70.35;101551.81;7354989;19;20027;-63
2024/01/29 10:50:41;;;;;;;0.10;0.10;;;;;;;8.42;70.43;101532.75;7363097;19;20473;-64
2024/01/29 10:53:07;;;;;;;0.00;0.00;;;;;;;8.56;70.47;101547.47;7365090;19;20615;-64
2024/01/29 10:55:34;;;;;;;0.10;0.10;;;;;;;8.50;70.50;101531.88;7365899;19;20014;-63
2024/01/29 10:58:01;;;;;;;0.10;0.10;;;;;;;8.57;70.32;101545.78;7359450;19;20007;-63
2024/01/29 11:00:28;;;;;;;0.10;0.10;;;;;;;8.63;70.28;101552.69;7362218;19;20101;-63
2024/01/29 11:02:55;;;;;;;0.10;0.10;;;;;;;8.45;70.56;101525.78;7361835;19;20414;-63
2024/01/29 11:05:21;;;;;;;0.10;0.10;;;;;;;8.57;70.47;101541.44;7363392;19;20011;-63
2024/01/29 11:07:48;;;;;;;0.05;0.05;;;;;;;8.58;70.19;101537.94;7361175;19;20006;-62
2024/01/29 11:10:16;;;;;;;0.20;0.20;;;;;;;8.66;70.11;101557.88;7362665;19;20010;-63
2024/01/29 11:12:43;;;;;;;0.10;0.10;;;;;;;8.52;70.21;101534.50;7360466;19;20016;-63
2024/01/29 11:15:10;;;;;;;0.10;0.10;;;;;;;8.56;70.30;101542.28;7365882;19;20059;-63
2024/01/29 11:17:35;;;;;;;0.10;0.10;;;;;;;8.64;70.18;101542.28;7359728;19;20046;-64
2024/01/29 11:20:10;;;;;;;0.10;0.10;;;;;;;8.55;70.46;101529.25;7361045;19;20449;-62
2024/01/29 11:22:37;;;;;;;0.00;0.00;;;;;;;8.67;70.27;101554.41;7362251;19;20007;-63
2024/01/29 11:25:15;;;;;;;0.10;0.10;;;;;;;8.72;70.47;101558.78;7361279;19;20037;-63